Flight Track Log - Related Links

Times and Time Zones

All times are in EDT time to prevent confusion due to time zone crossing. See the N21EK flight status page for this flight to view local times or setup timezone preferences in your user account.

Time Position Orientation Groundspeed Altitude Reporting Facility
EDT Latitude Longitude Course Direction KTS MPH feet Rate Location/Type
Sun 02:35:56 PM 34.1594 -78.7769 220° Southwest 171 197 10,000  Level Jacksonville Center
Sun 02:36:56 PM 34.1131 -78.8269 222° Southwest 200 230 11,200 1,900 Climbing Jacksonville Center
Sun 02:37:56 PM 34.0706 -78.8689 219° Southwest 211 243 13,800 2,150 Climbing Jacksonville Center
Sun 02:38:56 PM 34.0322 -78.9083 220° Southwest 198 228 15,500 1,700 Climbing Jacksonville Center
Sun 02:39:56 PM 33.9939 -78.9478 220° Southwest 198 228 17,200 1,450 Climbing Jacksonville Center
Sun 02:40:00 PM 33.9304 -79.0363 220° Southwest  Level FlightAware Approximate
Sun 02:40:56 PM 33.9533 -78.9869 219° Southwest 198 228 18,400  Level Jacksonville Center
Sun 02:41:56 PM 33.9108 -79.0289 219° Southwest 198 228 19,800 1,500 Climbing Jacksonville Center
Sun 02:42:56 PM 33.8722 -79.0681 220° Southwest 198 228 21,400 1,600 Climbing Jacksonville Center
Sun 02:43:56 PM 33.8319 -79.1100 221° Southwest 198 228 23,000 1,550 Climbing Jacksonville Center
Sun 02:44:56 PM 33.7911 -79.1467 217° Southwest 198 228 24,500 1,450 Climbing Jacksonville Center
Sun 02:45:56 PM 33.7508 -79.1883 221° Southwest 198 228 25,900 1,350 Climbing Jacksonville Center
Sun 02:46:56 PM 33.7103 -79.2300 221° Southwest 198 228 27,200 1,400 Climbing Jacksonville Center
Sun 02:47:56 PM 33.6697 -79.2717 221° Southwest 193 222 28,700 1,300 Climbing Jacksonville Center
Sun 02:48:56 PM 33.6269 -79.3133 219° Southwest 193 222 29,800 650 Climbing Jacksonville Center
Sun 02:49:56 PM 33.5803 -79.3600 220° Southwest 205 236 30,000 100 Climbing Jacksonville Center
Sun 02:50:56 PM 33.5275 -79.4144 221° Southwest 232 267 30,000 100 Level Jacksonville Center
Sun 02:51:56 PM 33.4708 -79.4714 220° Southwest 253 291 30,200 950 Climbing Jacksonville Center
Sun 02:52:56 PM 33.4158 -79.5208 217° Southwest 263 303 31,900 900 Climbing Jacksonville Center
Sun 02:53:56 PM 33.3650 -79.5750 222° Southwest 258 297 32,000 50 Climbing Jacksonville Center
Sun 02:54:56 PM 33.3081 -79.6317 220° Southwest 258 297 32,000  Level Jacksonville Center
Sun 02:55:56 PM 33.2469 -79.6911 219° Southwest 270 311 32,000  Level Jacksonville Center
Sun 02:56:56 PM 33.1881 -79.7528 221° Southwest 276 318 32,000  Level Jacksonville Center
Sun 02:57:56 PM 33.1225 -79.8097 216° Southwest 286 329 32,000 300 Level Jacksonville Center
Sun 02:58:56 PM 33.0617 -79.8736 221° Southwest 291 335 32,600 1,300 Climbing Jacksonville Center
Sun 02:59:56 PM 33.0086 -79.9250 219° Southwest 278 320 34,600 1,700 Climbing Jacksonville Center
Sun 03:00:56 PM 32.9614 -79.9686 218° Southwest 253 291 36,000 700 Climbing Jacksonville Center
Sun 03:01:56 PM 32.9106 -80.0197 220° Southwest 241 277 36,000  Level Jacksonville Center
Sun 03:02:56 PM 32.8469 -80.0714 214° Southwest 252 290 36,000  Level Jacksonville Center
Sun 03:03:56 PM 32.7936 -80.1100 211° Southwest 267 307 36,000 450 Level Jacksonville Center
Sun 03:04:56 PM 32.7217 -80.1642 212° Southwest 278 320 36,900 1,250 Climbing Jacksonville Center
Sun 03:05:56 PM 32.6619 -80.2078 212° Southwest 278 320 38,500 1,300 Climbing Jacksonville Center
Sun 03:06:56 PM 32.6108 -80.2489 214° Southwest 254 292 39,500 700 Climbing Jacksonville Center
Sun 03:07:56 PM 32.5572 -80.2850 210° Southwest 232 267 39,900 250 Climbing Jacksonville Center
Sun 03:08:56 PM 32.5058 -80.3258 214° Southwest 227 261 40,000 50 Climbing Jacksonville Center
Sun 03:09:57 PM 32.4483 -80.3667 211° Southwest 232 267 40,000  Level Jacksonville Center
Sun 03:10:56 PM 32.3906 -80.4078 211° Southwest 242 278 40,000  Level Jacksonville Center
Sun 03:11:56 PM 32.3289 -80.4536 212° Southwest 253 291 40,000  Level Jacksonville Center
Sun 03:12:56 PM 32.2650 -80.5022 213° Southwest 258 297 40,000  Level Jacksonville Center
Sun 03:13:56 PM 32.1992 -80.5481 211° Southwest 270 311 40,000  Level Jacksonville Center
Sun 03:14:56 PM 32.1394 -80.5936 213° Southwest 275 316 40,000  Level Jacksonville Center
Sun 03:15:56 PM 32.0672 -80.6469 212° Southwest 275 316 40,000  Level Jacksonville Center
Sun 03:16:56 PM 32.0014 -80.6928 211° Southwest 275 316 40,000  Level Jacksonville Center
Sun 03:17:56 PM 31.9436 -80.7356 212° Southwest 275 316 40,000  Level Jacksonville Center
Sun 03:18:56 PM 31.8714 -80.7864 211° Southwest 275 316 40,000  Level Jacksonville Center
Sun 03:19:56 PM 31.8053 -80.8317 210° Southwest 275 316 40,000  Level Jacksonville Center
Sun 03:20:56 PM 31.7475 -80.8744 212° Southwest 281 323 40,000  Level Jacksonville Center
Sun 03:21:56 PM 31.6600 -80.8839 185° South 290 334 40,000  Level Jacksonville Center
Sun 03:22:56 PM 31.5847 -80.8806 178° South 304 350 40,000  Level Jacksonville Center
Sun 03:23:56 PM 31.4906 -80.8728 176° South 311 358 40,000  Level Jacksonville Center
Sun 03:24:56 PM 31.4050 -80.8650 176° South 311 358 40,000  Level Jacksonville Center
Sun 03:25:56 PM 31.3172 -80.8644 180° South 311 358 40,000  Level Jacksonville Center
Sun 03:26:56 PM 31.2294 -80.8542 174° South 317 365 40,000  Level Jacksonville Center
Sun 03:27:56 PM 31.1436 -80.8489 177° South 312 359 40,000  Level Jacksonville Center
Sun 03:28:56 PM 31.0558 -80.8411 176° South 312 359 40,000  Level Jacksonville Center
Sun 03:29:56 PM 30.9661 -80.8356 177° South 317 365 40,000  Level Jacksonville Center
Sun 03:30:56 PM 30.8761 -80.8278 176° South 317 365 40,000  Level Jacksonville Center
Sun 03:31:56 PM 30.7864 -80.8225 177° South 322 371 40,000  Level Jacksonville Center
Sun 03:32:56 PM 30.6944 -80.8175 177° South 327 376 40,000  Level Jacksonville Center
Sun 03:33:56 PM 30.6022 -80.8097 176° South 327 376 40,000  Level Jacksonville Center
Sun 03:34:56 PM 30.5103 -80.8022 176° South 328 377 40,000  Level Jacksonville Center
Sun 03:35:56 PM 30.4206 -80.7969 177° South 334 384 40,000  Level Jacksonville Center
Sun 03:36:56 PM 30.3264 -80.7892 176° South 329 379 40,000  Level Jacksonville Center
Sun 03:37:56 PM 30.2303 -80.7867 179° South 329 379 40,000  Level Jacksonville Center
Sun 03:38:56 PM 30.1406 -80.7789 176° South 329 379 40,000  Level Jacksonville Center
Sun 03:39:56 PM 30.0464 -80.7689 175° South 329 379 40,000  Level Jacksonville Center
Sun 03:40:56 PM 29.9481 -80.7639 177° South 336 387 40,000  Level Jacksonville Center
Sun 03:41:56 PM 29.8583 -80.7586 177° South 336 387 40,000  Level Jacksonville Center
Sun 03:42:56 PM 29.7622 -80.7514 176° South 336 387 40,000  Level Jacksonville Center
Sun 03:43:56 PM 29.6681 -80.7461 177° South 336 387 40,000 -150 Level Jacksonville Center
Sun 03:44:56 PM 29.5761 -80.7411 177° South 336 387 39,700 -600 Descending Jacksonville Center
Sun 03:45:56 PM 29.4781 -80.7336 176° South 342 394 38,800 -993 Descending Jacksonville Center
Sun 03:47:15 PM 29.3500 -80.7294 178° South 350 403 37,400 -1,079 Descending Miami Center
Sun 03:48:15 PM 29.2522 -80.7189 175° South 350 403 36,300 -700 Descending Miami Center
Sun 03:49:15 PM 29.1564 -80.7108 176° South 350 403 36,000 -150 Descending Miami Center
Sun 03:50:15 PM 29.0628 -80.7050 177° South 345 397 36,000  Level Miami Center
Sun 03:51:15 PM 28.9650 -80.6992 177° South 345 397 36,000  Level Miami Center
Sun 03:52:15 PM 28.8781 -80.6750 166° South 350 403 36,000  Level Miami Center
Sun 03:53:15 PM 28.7708 -80.6192 155° Southeast 371 427 36,000  Level Miami Center
Sun 03:54:15 PM 28.6742 -80.5686 155° Southeast 385 443 36,000  Level Miami Center
Sun 03:55:15 PM 28.5756 -80.5133 154° Southeast 385 443 36,000  Level Miami Center
Sun 03:56:15 PM 28.4847 -80.4678 156° South 395 455 36,000 -1,200 Level Miami Center
Sun 03:57:15 PM 28.3758 -80.4078 154° Southeast 395 455 33,600 -2,850 Descending Miami Center
Sun 03:58:15 PM 28.2789 -80.3597 156° South 395 455 30,300 -3,400 Descending Miami Center
Sun 03:59:15 PM 28.1819 -80.3097 156° South 389 448 26,800 -3,550 Descending Miami Center
Sun 04:00:15 PM 28.1058 -80.2581 149° Southeast 368 423 23,200 -2,650 Descending Miami Center
Sun 04:01:15 PM 28.0217 -80.2014 149° Southeast 355 409 21,500 -1,850 Descending Miami Center
Sun 04:02:15 PM 27.9114 -80.1864 173° South 350 403 19,500 -1,900 Descending Miami Center
Sun 04:03:15 PM 27.8092 -80.1811 177° South 368 423 17,700 -1,850 Descending Miami Center
Sun 04:04:15 PM 27.7072 -80.1711 175° South 368 423 15,800 -1,350 Descending Miami Center
Sun 04:05:15 PM 27.6239 -80.1639 176° South 353 406 15,000 -1,200 Descending Miami Center
Sun 04:06:15 PM 27.5281 -80.1567 176° South 343 395 13,400 -1,850 Descending Miami Center
Sun 04:07:15 PM 27.4217 -80.1489 176° South 348 400 11,300 -1,700 Descending Miami Center
Sun 04:08:15 PM 27.3278 -80.1414 176° South 348 400 10,000 -650 Descending Miami Center
Sun 04:09:15 PM 27.2467 -80.1322 174° South 323 372 10,000 -600 Level Miami Center
Sun 04:10:15 PM 27.1717 -80.1206 172° South 302 348 8,800 -1,400 Descending Miami Center
Sun 04:11:15 PM 27.0967 -80.1117 174° South 287 330 7,200 -1,650 Descending Miami Center
Sun 04:12:15 PM 27.0197 -80.1000 172° South 264 304 5,500 -1,100 Descending Miami Center
Sun 04:13:15 PM 26.9533 -80.0889 172° South 258 297 5,000 -250 Descending Miami Center
Sun 04:14:15 PM 26.8844 -80.0822 175° South 258 297 5,000  Level Miami Center
Sun 04:15:15 PM 26.8261 -80.0808 179° South 250 288 5,000  Level Miami Center
Sun 04:16:15 PM 26.7464 -80.0947 189° South 262 302 5,000 -567 Level Miami Center
Sun 04:18:00 PM 26.6128 -80.1167 180° South  Level FlightAware Approximate
Sun 04:18:36 PM 26.6058 -80.1211 180° South 194 223 3,100  Level Miami Center
Sun 04:19:32 PM 26.5575 -80.1336 193° South 183 211 2,100 -821 Descending Miami Center
Sun 04:20:33 PM 26.5092 -80.1417 188° South 175 201 1,500 -298 Descending Miami Center
Sun 04:21:33 PM 26.4614 -80.1381 176° South 182 209 1,500 -49 Level Miami Center
Sun 04:22:35 PM 26.4153 -80.1461 189° South 150 173 1,400 -246 Descending Miami Center
Sun 04:23:35 PM 26.3817 -80.1475 182° South 118 136 1,000 -492 Descending Miami Center
Sun 04:24:37 PM 26.3633 -80.1261 134° Southeast 105 121 400 -581 Descending Miami Center
Sun 04:26:00 PM 26.3667 -80.1000 42° Northeast  Level FlightAware Approximate
Sun 04:33:00 PM 26.3785 -80.1077 42° Northeast  Level Estimated

Login

Don't have an account? Register now (free) for customized features, flight alerts, and more!